Crumpler, North Carolina
Current Conditions -  °F | °C
As of 6:55 PM on Sunday 23 Nov 2014 (Local Time) from KGEV Reporting Station
Heavy Rain Heavy Rain  
Wind Chill: 44°   Ceiling: 300
Heat Index: 47°   Visibility: 2mi
Dew Point: 46°   Wind: 5mph
Humidity: 99%   Direction: 180°S
Pressure: 29.82"   Gusts: NA
Location:  36.5°N, 81.39°W
Report Text: KGEV 232355Z AUTO 18004KT 2SM +RA OVC003 08/08 A2982 RMK AO2 VIS 1V5 P0034 60064 T00810080 10081 20039
Loading
Personal Weather Stations






























Interactive Weather Map New forecast layout! Learn more

10-Day Weather Forecast

Advertisements
Track Severe Weather on mobile